sensor_id;sensor_type;location;lat;lon;timestamp;P1;durP1;ratioP1;P2;durP2;ratioP2
43124;SDS011;49182;50.788;7.318;2022-07-15T00:01:29;5.15;;;1.90;;
43124;SDS011;49182;50.788;7.318;2022-07-15T00:03:56;3.28;;;1.58;;
43124;SDS011;49182;50.788;7.318;2022-07-15T00:06:24;3.95;;;1.73;;
43124;SDS011;49182;50.788;7.318;2022-07-15T00:08:51;3.80;;;1.83;;
43124;SDS011;49182;50.788;7.318;2022-07-15T00:11:17;3.30;;;1.67;;
43124;SDS011;49182;50.788;7.318;2022-07-15T00:13:44;4.30;;;1.60;;
43124;SDS011;49182;50.788;7.318;2022-07-15T00:16:10;4.10;;;1.80;;
43124;SDS011;49182;50.788;7.318;2022-07-15T00:18:37;3.10;;;1.70;;
43124;SDS011;49182;50.788;7.318;2022-07-15T00:21:04;4.60;;;1.95;;
43124;SDS011;49182;50.788;7.318;2022-07-15T00:23:32;5.15;;;1.95;;
43124;SDS011;49182;50.788;7.318;2022-07-15T00:25:59;4.22;;;1.70;;
43124;SDS011;49182;50.788;7.318;2022-07-15T00:28:25;4.07;;;1.92;;
43124;SDS011;49182;50.788;7.318;2022-07-15T00:30:52;5.07;;;1.88;;
43124;SDS011;49182;50.788;7.318;2022-07-15T00:33:18;8.73;;;2.30;;
43124;SDS011;49182;50.788;7.318;2022-07-15T00:35:45;4.43;;;1.70;;
43124;SDS011;49182;50.788;7.318;2022-07-15T00:38:12;4.72;;;1.50;;
43124;SDS011;49182;50.788;7.318;2022-07-15T00:40:43;3.85;;;2.10;;
43124;SDS011;49182;50.788;7.318;2022-07-15T00:43:11;6.35;;;1.88;;
43124;SDS011;49182;50.788;7.318;2022-07-15T00:45:38;5.03;;;1.70;;
43124;SDS011;49182;50.788;7.318;2022-07-15T00:48:05;3.88;;;1.80;;
43124;SDS011;49182;50.788;7.318;2022-07-15T00:50:35;8.50;;;1.83;;
43124;SDS011;49182;50.788;7.318;2022-07-15T00:53:02;5.68;;;1.85;;
43124;SDS011;49182;50.788;7.318;2022-07-15T00:55:31;3.40;;;1.80;;
43124;SDS011;49182;50.788;7.318;2022-07-15T00:58:02;7.40;;;1.70;;
43124;SDS011;49182;50.788;7.318;2022-07-15T01:00:30;4.80;;;1.83;;
43124;SDS011;49182;50.788;7.318;2022-07-15T01:02:58;3.33;;;1.60;;
43124;SDS011;49182;50.788;7.318;2022-07-15T01:05:27;4.97;;;1.80;;
43124;SDS011;49182;50.788;7.318;2022-07-15T01:07:54;5.10;;;1.90;;
43124;SDS011;49182;50.788;7.318;2022-07-15T01:10:21;5.63;;;1.90;;
43124;SDS011;49182;50.788;7.318;2022-07-15T01:12:50;4.22;;;2.10;;
43124;SDS011;49182;50.788;7.318;2022-07-15T01:15:25;4.22;;;1.85;;
43124;SDS011;49182;50.788;7.318;2022-07-15T01:17:52;4.60;;;1.85;;
43124;SDS011;49182;50.788;7.318;2022-07-15T01:20:19;3.70;;;1.70;;
43124;SDS011;49182;50.788;7.318;2022-07-15T01:22:54;4.35;;;1.80;;
43124;SDS011;49182;50.788;7.318;2022-07-15T01:27:51;5.15;;;1.70;;
43124;SDS011;49182;50.788;7.318;2022-07-15T01:30:22;3.65;;;1.90;;
43124;SDS011;49182;50.788;7.318;2022-07-15T01:32:50;4.68;;;2.42;;
43124;SDS011;49182;50.788;7.318;2022-07-15T01:35:17;4.25;;;1.98;;
43124;SDS011;49182;50.788;7.318;2022-07-15T01:37:46;4.43;;;1.95;;
43124;SDS011;49182;50.788;7.318;2022-07-15T01:40:16;5.35;;;1.92;;
43124;SDS011;49182;50.788;7.318;2022-07-15T01:42:44;5.43;;;2.13;;
43124;SDS011;49182;50.788;7.318;2022-07-15T01:45:12;3.00;;;1.70;;
43124;SDS011;49182;50.788;7.318;2022-07-15T01:47:42;6.63;;;2.10;;
43124;SDS011;49182;50.788;7.318;2022-07-15T01:50:11;5.32;;;1.85;;
43124;SDS011;49182;50.788;7.318;2022-07-15T01:52:53;6.30;;;1.90;;
43124;SDS011;49182;50.788;7.318;2022-07-15T01:55:22;4.20;;;1.90;;
43124;SDS011;49182;50.788;7.318;2022-07-15T01:57:48;4.82;;;2.00;;
43124;SDS011;49182;50.788;7.318;2022-07-15T02:00:15;5.53;;;1.95;;
43124;SDS011;49182;50.788;7.318;2022-07-15T02:02:42;5.15;;;2.00;;
43124;SDS011;49182;50.788;7.318;2022-07-15T02:05:09;4.10;;;2.20;;
43124;SDS011;49182;50.788;7.318;2022-07-15T02:07:38;3.92;;;2.10;;
43124;SDS011;49182;50.788;7.318;2022-07-15T02:10:06;3.97;;;2.00;;
43124;SDS011;49182;50.788;7.318;2022-07-15T02:12:34;6.82;;;1.85;;
43124;SDS011;49182;50.788;7.318;2022-07-15T02:15:01;5.60;;;2.10;;
43124;SDS011;49182;50.788;7.318;2022-07-15T02:17:39;4.35;;;2.17;;
43124;SDS011;49182;50.788;7.318;2022-07-15T02:20:06;6.30;;;2.28;;
43124;SDS011;49182;50.788;7.318;2022-07-15T02:22:34;3.75;;;1.80;;
43124;SDS011;49182;50.788;7.318;2022-07-15T02:25:00;5.97;;;2.22;;
43124;SDS011;49182;50.788;7.318;2022-07-15T02:27:29;5.43;;;2.20;;
43124;SDS011;49182;50.788;7.318;2022-07-15T02:29:57;4.28;;;2.03;;
43124;SDS011;49182;50.788;7.318;2022-07-15T02:32:29;7.53;;;2.10;;
43124;SDS011;49182;50.788;7.318;2022-07-15T02:34:57;6.45;;;2.03;;
43124;SDS011;49182;50.788;7.318;2022-07-15T02:37:25;5.32;;;2.15;;
43124;SDS011;49182;50.788;7.318;2022-07-15T02:39:52;3.45;;;1.70;;
43124;SDS011;49182;50.788;7.318;2022-07-15T02:42:19;4.78;;;1.83;;
43124;SDS011;49182;50.788;7.318;2022-07-15T02:44:47;4.10;;;2.10;;
43124;SDS011;49182;50.788;7.318;2022-07-15T02:47:14;3.40;;;1.70;;
43124;SDS011;49182;50.788;7.318;2022-07-15T02:49:41;4.25;;;2.00;;
43124;SDS011;49182;50.788;7.318;2022-07-15T02:52:08;4.70;;;1.65;;
43124;SDS011;49182;50.788;7.318;2022-07-15T02:54:39;3.80;;;2.07;;
43124;SDS011;49182;50.788;7.318;2022-07-15T02:57:06;5.90;;;1.90;;
43124;SDS011;49182;50.788;7.318;2022-07-15T02:59:36;3.53;;;1.95;;
43124;SDS011;49182;50.788;7.318;2022-07-15T03:02:03;4.55;;;2.03;;
43124;SDS011;49182;50.788;7.318;2022-07-15T03:04:31;2.95;;;1.67;;
43124;SDS011;49182;50.788;7.318;2022-07-15T03:06:58;4.50;;;2.00;;
43124;SDS011;49182;50.788;7.318;2022-07-15T03:09:25;5.28;;;1.98;;
43124;SDS011;49182;50.788;7.318;2022-07-15T03:11:51;4.05;;;2.03;;
43124;SDS011;49182;50.788;7.318;2022-07-15T03:14:18;5.85;;;2.00;;
43124;SDS011;49182;50.788;7.318;2022-07-15T03:16:47;3.63;;;1.92;;
43124;SDS011;49182;50.788;7.318;2022-07-15T03:19:13;5.90;;;2.10;;
43124;SDS011;49182;50.788;7.318;2022-07-15T03:21:45;3.22;;;1.77;;
43124;SDS011;49182;50.788;7.318;2022-07-15T03:24:12;5.43;;;2.03;;
43124;SDS011;49182;50.788;7.318;2022-07-15T03:26:41;3.25;;;1.70;;
43124;SDS011;49182;50.788;7.318;2022-07-15T03:29:08;5.88;;;2.13;;
43124;SDS011;49182;50.788;7.318;2022-07-15T03:31:37;3.22;;;1.85;;
43124;SDS011;49182;50.788;7.318;2022-07-15T03:34:06;5.07;;;2.00;;
43124;SDS011;49182;50.788;7.318;2022-07-15T03:36:32;5.07;;;2.65;;
43124;SDS011;49182;50.788;7.318;2022-07-15T03:39:00;4.93;;;2.10;;
43124;SDS011;49182;50.788;7.318;2022-07-15T03:41:27;3.83;;;1.83;;
43124;SDS011;49182;50.788;7.318;2022-07-15T03:43:54;4.10;;;1.77;;
43124;SDS011;49182;50.788;7.318;2022-07-15T03:46:21;4.97;;;1.92;;
43124;SDS011;49182;50.788;7.318;2022-07-15T03:48:52;5.00;;;2.08;;
43124;SDS011;49182;50.788;7.318;2022-07-15T03:51:20;4.50;;;1.70;;
43124;SDS011;49182;50.788;7.318;2022-07-15T03:53:48;3.92;;;1.70;;
43124;SDS011;49182;50.788;7.318;2022-07-15T03:56:16;5.35;;;1.98;;
43124;SDS011;49182;50.788;7.318;2022-07-15T03:58:43;3.95;;;1.65;;
43124;SDS011;49182;50.788;7.318;2022-07-15T04:01:10;4.93;;;1.73;;
43124;SDS011;49182;50.788;7.318;2022-07-15T04:03:38;4.32;;;1.88;;
43124;SDS011;49182;50.788;7.318;2022-07-15T04:06:05;4.43;;;2.00;;
43124;SDS011;49182;50.788;7.318;2022-07-15T04:08:31;4.68;;;1.80;;
43124;SDS011;49182;50.788;7.318;2022-07-15T04:10:58;6.22;;;2.05;;
43124;SDS011;49182;50.788;7.318;2022-07-15T04:13:26;3.40;;;1.90;;
43124;SDS011;49182;50.788;7.318;2022-07-15T04:15:53;4.40;;;2.00;;
43124;SDS011;49182;50.788;7.318;2022-07-15T04:18:21;5.30;;;2.10;;
43124;SDS011;49182;50.788;7.318;2022-07-15T04:20:49;4.50;;;1.95;;
43124;SDS011;49182;50.788;7.318;2022-07-15T04:23:16;4.43;;;2.13;;
43124;SDS011;49182;50.788;7.318;2022-07-15T04:25:44;5.72;;;2.00;;
43124;SDS011;49182;50.788;7.318;2022-07-15T04:28:14;4.13;;;1.98;;
43124;SDS011;49182;50.788;7.318;2022-07-15T04:30:42;3.85;;;1.98;;
43124;SDS011;49182;50.788;7.318;2022-07-15T04:33:12;4.22;;;1.92;;
43124;SDS011;49182;50.788;7.318;2022-07-15T04:35:41;5.03;;;2.15;;
43124;SDS011;49182;50.788;7.318;2022-07-15T04:38:08;3.78;;;1.77;;
43124;SDS011;49182;50.788;7.318;2022-07-15T04:40:36;4.75;;;2.10;;
43124;SDS011;49182;50.788;7.318;2022-07-15T04:43:10;4.30;;;1.77;;
43124;SDS011;49182;50.788;7.318;2022-07-15T04:45:37;4.85;;;2.25;;
43124;SDS011;49182;50.788;7.318;2022-07-15T04:48:06;5.00;;;2.03;;
43124;SDS011;49182;50.788;7.318;2022-07-15T04:50:33;4.45;;;1.90;;
43124;SDS011;49182;50.788;7.318;2022-07-15T04:53:00;3.75;;;1.88;;
43124;SDS011;49182;50.788;7.318;2022-07-15T04:55:27;5.72;;;2.20;;
43124;SDS011;49182;50.788;7.318;2022-07-15T04:58:02;7.30;;;2.15;;
43124;SDS011;49182;50.788;7.318;2022-07-15T05:00:29;5.03;;;1.98;;
43124;SDS011;49182;50.788;7.318;2022-07-15T05:02:56;4.28;;;2.10;;
43124;SDS011;49182;50.788;7.318;2022-07-15T05:05:25;22.92;;;2.40;;
43124;SDS011;49182;50.788;7.318;2022-07-15T05:07:51;5.85;;;2.20;;
43124;SDS011;49182;50.788;7.318;2022-07-15T05:10:18;7.07;;;1.90;;
43124;SDS011;49182;50.788;7.318;2022-07-15T05:12:55;3.65;;;1.75;;
43124;SDS011;49182;50.788;7.318;2022-07-15T05:15:22;5.68;;;2.05;;
43124;SDS011;49182;50.788;7.318;2022-07-15T05:17:49;4.32;;;2.22;;
43124;SDS011;49182;50.788;7.318;2022-07-15T05:20:19;4.90;;;2.70;;
43124;SDS011;49182;50.788;7.318;2022-07-15T05:22:49;4.45;;;1.98;;
43124;SDS011;49182;50.788;7.318;2022-07-15T05:25:17;4.72;;;2.20;;
43124;SDS011;49182;50.788;7.318;2022-07-15T05:27:44;7.82;;;2.20;;
43124;SDS011;49182;50.788;7.318;2022-07-15T05:30:11;5.35;;;1.90;;
43124;SDS011;49182;50.788;7.318;2022-07-15T05:32:38;3.50;;;1.73;;
43124;SDS011;49182;50.788;7.318;2022-07-15T05:35:12;5.38;;;1.92;;
43124;SDS011;49182;50.788;7.318;2022-07-15T05:37:39;4.03;;;1.88;;
43124;SDS011;49182;50.788;7.318;2022-07-15T05:40:11;5.32;;;2.70;;
43124;SDS011;49182;50.788;7.318;2022-07-15T05:42:44;5.25;;;2.10;;
43124;SDS011;49182;50.788;7.318;2022-07-15T05:45:11;9.95;;;1.90;;
43124;SDS011;49182;50.788;7.318;2022-07-15T05:47:46;8.98;;;2.65;;
43124;SDS011;49182;50.788;7.318;2022-07-15T05:50:14;6.40;;;2.60;;
43124;SDS011;49182;50.788;7.318;2022-07-15T05:52:40;6.43;;;1.67;;
43124;SDS011;49182;50.788;7.318;2022-07-15T05:55:07;8.43;;;1.83;;
43124;SDS011;49182;50.788;7.318;2022-07-15T05:57:37;5.88;;;2.08;;
43124;SDS011;49182;50.788;7.318;2022-07-15T06:00:11;9.48;;;2.78;;
43124;SDS011;49182;50.788;7.318;2022-07-15T06:02:45;10.00;;;2.25;;
43124;SDS011;49182;50.788;7.318;2022-07-15T06:05:19;8.35;;;1.90;;
43124;SDS011;49182;50.788;7.318;2022-07-15T06:07:50;6.10;;;1.80;;
43124;SDS011;49182;50.788;7.318;2022-07-15T06:10:23;7.97;;;1.95;;
43124;SDS011;49182;50.788;7.318;2022-07-15T06:12:51;12.10;;;2.20;;
43124;SDS011;49182;50.788;7.318;2022-07-15T06:15:18;7.18;;;2.35;;
43124;SDS011;49182;50.788;7.318;2022-07-15T06:17:45;8.40;;;2.00;;
43124;SDS011;49182;50.788;7.318;2022-07-15T06:20:12;5.97;;;1.75;;
43124;SDS011;49182;50.788;7.318;2022-07-15T06:22:39;6.20;;;1.73;;
43124;SDS011;49182;50.788;7.318;2022-07-15T06:25:06;8.35;;;1.52;;
43124;SDS011;49182;50.788;7.318;2022-07-15T06:27:33;8.35;;;1.70;;
43124;SDS011;49182;50.788;7.318;2022-07-15T06:30:01;7.47;;;1.60;;
43124;SDS011;49182;50.788;7.318;2022-07-15T06:32:28;9.43;;;1.73;;
43124;SDS011;49182;50.788;7.318;2022-07-15T06:34:55;9.20;;;1.60;;
43124;SDS011;49182;50.788;7.318;2022-07-15T06:37:21;10.05;;;1.90;;
43124;SDS011;49182;50.788;7.318;2022-07-15T06:39:48;6.93;;;1.73;;
43124;SDS011;49182;50.788;7.318;2022-07-15T06:42:15;9.90;;;1.73;;
43124;SDS011;49182;50.788;7.318;2022-07-15T06:44:55;7.38;;;1.80;;
43124;SDS011;49182;50.788;7.318;2022-07-15T06:47:23;12.38;;;2.13;;
43124;SDS011;49182;50.788;7.318;2022-07-15T06:49:49;6.10;;;1.92;;
43124;SDS011;49182;50.788;7.318;2022-07-15T06:52:17;10.15;;;1.70;;
43124;SDS011;49182;50.788;7.318;2022-07-15T06:54:46;4.03;;;1.25;;
43124;SDS011;49182;50.788;7.318;2022-07-15T06:57:12;7.38;;;1.58;;
43124;SDS011;49182;50.788;7.318;2022-07-15T06:59:45;6.45;;;1.65;;
43124;SDS011;49182;50.788;7.318;2022-07-15T07:02:12;5.72;;;1.33;;
43124;SDS011;49182;50.788;7.318;2022-07-15T07:04:42;3.88;;;1.05;;
43124;SDS011;49182;50.788;7.318;2022-07-15T07:07:11;6.07;;;1.30;;
43124;SDS011;49182;50.788;7.318;2022-07-15T07:09:38;11.73;;;1.90;;
43124;SDS011;49182;50.788;7.318;2022-07-15T07:12:05;8.82;;;1.50;;
43124;SDS011;49182;50.788;7.318;2022-07-15T07:14:32;5.22;;;1.35;;
43124;SDS011;49182;50.788;7.318;2022-07-15T07:16:58;5.00;;;1.40;;
43124;SDS011;49182;50.788;7.318;2022-07-15T07:19:25;6.85;;;1.42;;
43124;SDS011;49182;50.788;7.318;2022-07-15T07:21:53;4.63;;;1.27;;
43124;SDS011;49182;50.788;7.318;2022-07-15T07:24:19;5.30;;;1.30;;
43124;SDS011;49182;50.788;7.318;2022-07-15T07:26:46;10.70;;;1.70;;
43124;SDS011;49182;50.788;7.318;2022-07-15T07:29:12;4.72;;;1.65;;
43124;SDS011;49182;50.788;7.318;2022-07-15T07:31:39;5.43;;;1.40;;
43124;SDS011;49182;50.788;7.318;2022-07-15T07:34:06;6.65;;;1.80;;
43124;SDS011;49182;50.788;7.318;2022-07-15T07:36:32;6.07;;;1.10;;
43124;SDS011;49182;50.788;7.318;2022-07-15T07:39:00;4.57;;;1.33;;
43124;SDS011;49182;50.788;7.318;2022-07-15T07:41:27;4.63;;;1.08;;
43124;SDS011;49182;50.788;7.318;2022-07-15T07:43:53;6.20;;;1.30;;
43124;SDS011;49182;50.788;7.318;2022-07-15T07:46:20;6.85;;;1.20;;
43124;SDS011;49182;50.788;7.318;2022-07-15T07:48:47;4.45;;;1.10;;
43124;SDS011;49182;50.788;7.318;2022-07-15T07:51:13;6.38;;;1.30;;
43124;SDS011;49182;50.788;7.318;2022-07-15T07:53:41;5.78;;;1.38;;
43124;SDS011;49182;50.788;7.318;2022-07-15T07:56:09;3.35;;;1.10;;
43124;SDS011;49182;50.788;7.318;2022-07-15T07:58:36;4.63;;;1.40;;
43124;SDS011;49182;50.788;7.318;2022-07-15T08:01:02;3.92;;;1.10;;
43124;SDS011;49182;50.788;7.318;2022-07-15T08:03:29;6.38;;;1.13;;
43124;SDS011;49182;50.788;7.318;2022-07-15T08:05:56;5.32;;;1.17;;
43124;SDS011;49182;50.788;7.318;2022-07-15T08:08:22;4.55;;;1.10;;
43124;SDS011;49182;50.788;7.318;2022-07-15T08:10:50;7.50;;;1.40;;
43124;SDS011;49182;50.788;7.318;2022-07-15T08:13:19;5.50;;;0.95;;
43124;SDS011;49182;50.788;7.318;2022-07-15T08:15:46;3.92;;;0.90;;
43124;SDS011;49182;50.788;7.318;2022-07-15T08:18:22;6.72;;;0.90;;
43124;SDS011;49182;50.788;7.318;2022-07-15T08:20:50;4.85;;;1.17;;
43124;SDS011;49182;50.788;7.318;2022-07-15T08:23:16;3.38;;;0.95;;
43124;SDS011;49182;50.788;7.318;2022-07-15T08:25:43;3.90;;;0.80;;
43124;SDS011;49182;50.788;7.318;2022-07-15T08:28:10;3.53;;;0.88;;
43124;SDS011;49182;50.788;7.318;2022-07-15T08:30:37;3.78;;;1.13;;
43124;SDS011;49182;50.788;7.318;2022-07-15T08:33:04;2.72;;;0.90;;
43124;SDS011;49182;50.788;7.318;2022-07-15T08:35:31;2.47;;;1.20;;
43124;SDS011;49182;50.788;7.318;2022-07-15T08:38:02;4.82;;;0.93;;
43124;SDS011;49182;50.788;7.318;2022-07-15T08:40:29;4.28;;;1.10;;
43124;SDS011;49182;50.788;7.318;2022-07-15T08:42:56;6.25;;;1.58;;
43124;SDS011;49182;50.788;7.318;2022-07-15T08:45:22;3.25;;;0.82;;
43124;SDS011;49182;50.788;7.318;2022-07-15T08:47:51;4.68;;;1.00;;
43124;SDS011;49182;50.788;7.318;2022-07-15T08:50:20;4.25;;;1.05;;
43124;SDS011;49182;50.788;7.318;2022-07-15T08:52:47;6.50;;;0.90;;
43124;SDS011;49182;50.788;7.318;2022-07-15T08:55:15;2.78;;;0.68;;
43124;SDS011;49182;50.788;7.318;2022-07-15T08:57:44;5.85;;;0.90;;
43124;SDS011;49182;50.788;7.318;2022-07-15T09:00:12;4.22;;;0.80;;
43124;SDS011;49182;50.788;7.318;2022-07-15T09:02:39;4.75;;;0.90;;
43124;SDS011;49182;50.788;7.318;2022-07-15T09:05:17;2.58;;;0.70;;
43124;SDS011;49182;50.788;7.318;2022-07-15T09:07:52;5.70;;;1.10;;
43124;SDS011;49182;50.788;7.318;2022-07-15T09:10:21;3.40;;;0.93;;
43124;SDS011;49182;50.788;7.318;2022-07-15T09:12:49;10.05;;;1.00;;
43124;SDS011;49182;50.788;7.318;2022-07-15T09:15:29;3.75;;;0.82;;
43124;SDS011;49182;50.788;7.318;2022-07-15T09:18:07;3.83;;;1.10;;
43124;SDS011;49182;50.788;7.318;2022-07-15T09:20:38;3.13;;;0.80;;
43124;SDS011;49182;50.788;7.318;2022-07-15T09:23:06;3.20;;;0.77;;
43124;SDS011;49182;50.788;7.318;2022-07-15T09:25:34;4.28;;;1.10;;
43124;SDS011;49182;50.788;7.318;2022-07-15T09:28:01;2.63;;;0.70;;
43124;SDS011;49182;50.788;7.318;2022-07-15T09:30:29;4.00;;;0.88;;
43124;SDS011;49182;50.788;7.318;2022-07-15T09:32:57;5.47;;;0.95;;
43124;SDS011;49182;50.788;7.318;2022-07-15T09:35:25;5.20;;;0.70;;
43124;SDS011;49182;50.788;7.318;2022-07-15T09:37:56;4.65;;;0.90;;
43124;SDS011;49182;50.788;7.318;2022-07-15T09:40:23;2.58;;;0.68;;
43124;SDS011;49182;50.788;7.318;2022-07-15T09:43:00;2.63;;;0.60;;
43124;SDS011;49182;50.788;7.318;2022-07-15T09:45:27;6.40;;;1.50;;
43124;SDS011;49182;50.788;7.318;2022-07-15T09:48:04;3.55;;;0.60;;
43124;SDS011;49182;50.788;7.318;2022-07-15T09:50:35;2.78;;;0.50;;
43124;SDS011;49182;50.788;7.318;2022-07-15T09:53:04;2.15;;;0.50;;
43124;SDS011;49182;50.788;7.318;2022-07-15T09:55:36;5.30;;;1.15;;
43124;SDS011;49182;50.788;7.318;2022-07-15T09:58:03;3.10;;;0.70;;
43124;SDS011;49182;50.788;7.318;2022-07-15T10:00:29;3.88;;;1.05;;
43124;SDS011;49182;50.788;7.318;2022-07-15T10:02:57;3.10;;;1.33;;
43124;SDS011;49182;50.788;7.318;2022-07-15T10:05:24;2.22;;;0.60;;
43124;SDS011;49182;50.788;7.318;2022-07-15T10:07:51;3.55;;;0.80;;
43124;SDS011;49182;50.788;7.318;2022-07-15T10:10:20;5.45;;;0.77;;
43124;SDS011;49182;50.788;7.318;2022-07-15T10:12:49;3.20;;;0.68;;
43124;SDS011;49182;50.788;7.318;2022-07-15T10:15:29;3.08;;;0.80;;
43124;SDS011;49182;50.788;7.318;2022-07-15T10:18:17;4.00;;;0.80;;
43124;SDS011;49182;50.788;7.318;2022-07-15T10:21:01;2.20;;;0.75;;
43124;SDS011;49182;50.788;7.318;2022-07-15T10:23:38;2.95;;;0.80;;
43124;SDS011;49182;50.788;7.318;2022-07-15T10:26:25;3.17;;;0.90;;
43124;SDS011;49182;50.788;7.318;2022-07-15T10:29:05;4.65;;;1.52;;
43124;SDS011;49182;50.788;7.318;2022-07-15T10:31:34;3.50;;;0.90;;
43124;SDS011;49182;50.788;7.318;2022-07-15T10:34:20;3.95;;;1.20;;
43124;SDS011;49182;50.788;7.318;2022-07-15T10:36:57;5.97;;;1.38;;
43124;SDS011;49182;50.788;7.318;2022-07-15T10:42:15;2.85;;;0.95;;
43124;SDS011;49182;50.788;7.318;2022-07-15T10:44:50;4.60;;;1.10;;
43124;SDS011;49182;50.788;7.318;2022-07-15T10:47:29;5.85;;;1.13;;
43124;SDS011;49182;50.788;7.318;2022-07-15T10:49:56;2.03;;;0.80;;
43124;SDS011;49182;50.788;7.318;2022-07-15T10:52:23;10.27;;;1.35;;
43124;SDS011;49182;50.788;7.318;2022-07-15T10:54:59;5.35;;;1.70;;
43124;SDS011;49182;50.788;7.318;2022-07-15T11:00:27;3.95;;;1.33;;
43124;SDS011;49182;50.788;7.318;2022-07-15T11:03:00;7.60;;;2.10;;
43124;SDS011;49182;50.788;7.318;2022-07-15T11:05:29;6.00;;;1.67;;
43124;SDS011;49182;50.788;7.318;2022-07-15T11:07:56;5.10;;;1.65;;
43124;SDS011;49182;50.788;7.318;2022-07-15T11:10:22;4.15;;;1.70;;
43124;SDS011;49182;50.788;7.318;2022-07-15T11:15:38;4.30;;;1.40;;
43124;SDS011;49182;50.788;7.318;2022-07-15T11:18:05;5.82;;;1.50;;
43124;SDS011;49182;50.788;7.318;2022-07-15T11:20:35;4.55;;;1.50;;
43124;SDS011;49182;50.788;7.318;2022-07-15T11:23:03;4.03;;;1.40;;
43124;SDS011;49182;50.788;7.318;2022-07-15T11:25:31;3.90;;;1.30;;
43124;SDS011;49182;50.788;7.318;2022-07-15T11:28:00;3.88;;;1.23;;
43124;SDS011;49182;50.788;7.318;2022-07-15T11:30:31;5.75;;;1.40;;
43124;SDS011;49182;50.788;7.318;2022-07-15T11:33:00;3.13;;;1.20;;
43124;SDS011;49182;50.788;7.318;2022-07-15T11:35:28;2.92;;;1.10;;
43124;SDS011;49182;50.788;7.318;2022-07-15T11:38:00;5.05;;;1.25;;
43124;SDS011;49182;50.788;7.318;2022-07-15T11:40:30;3.75;;;1.05;;
43124;SDS011;49182;50.788;7.318;2022-07-15T11:42:57;5.25;;;1.08;;
43124;SDS011;49182;50.788;7.318;2022-07-15T11:45:33;5.20;;;1.30;;
43124;SDS011;49182;50.788;7.318;2022-07-15T11:48:02;3.70;;;1.00;;
43124;SDS011;49182;50.788;7.318;2022-07-15T11:50:30;3.85;;;1.20;;
43124;SDS011;49182;50.788;7.318;2022-07-15T11:52:57;3.75;;;1.13;;
43124;SDS011;49182;50.788;7.318;2022-07-15T11:55:25;4.80;;;1.23;;
43124;SDS011;49182;50.788;7.318;2022-07-15T11:57:52;4.78;;;1.23;;
43124;SDS011;49182;50.788;7.318;2022-07-15T12:00:26;3.72;;;1.40;;
43124;SDS011;49182;50.788;7.318;2022-07-15T12:03:06;4.15;;;2.25;;
43124;SDS011;49182;50.788;7.318;2022-07-15T12:05:33;4.03;;;1.00;;
43124;SDS011;49182;50.788;7.318;2022-07-15T12:08:00;4.95;;;1.20;;
43124;SDS011;49182;50.788;7.318;2022-07-15T12:10:32;4.40;;;1.27;;
43124;SDS011;49182;50.788;7.318;2022-07-15T12:13:00;3.92;;;1.25;;
43124;SDS011;49182;50.788;7.318;2022-07-15T12:15:26;3.05;;;1.20;;
43124;SDS011;49182;50.788;7.318;2022-07-15T12:17:54;4.65;;;1.50;;
43124;SDS011;49182;50.788;7.318;2022-07-15T12:20:22;4.38;;;1.30;;
43124;SDS011;49182;50.788;7.318;2022-07-15T12:23:05;4.45;;;1.30;;
43124;SDS011;49182;50.788;7.318;2022-07-15T12:25:33;3.42;;;1.38;;
43124;SDS011;49182;50.788;7.318;2022-07-15T12:27:59;4.35;;;1.55;;
43124;SDS011;49182;50.788;7.318;2022-07-15T12:30:30;31.98;;;3.38;;
43124;SDS011;49182;50.788;7.318;2022-07-15T12:33:17;4.88;;;1.67;;
43124;SDS011;49182;50.788;7.318;2022-07-15T12:35:47;6.47;;;1.75;;
43124;SDS011;49182;50.788;7.318;2022-07-15T12:38:24;7.18;;;1.40;;
43124;SDS011;49182;50.788;7.318;2022-07-15T12:40:52;8.27;;;1.58;;
43124;SDS011;49182;50.788;7.318;2022-07-15T12:43:19;6.90;;;1.80;;
43124;SDS011;49182;50.788;7.318;2022-07-15T12:45:47;5.30;;;1.65;;
43124;SDS011;49182;50.788;7.318;2022-07-15T12:48:14;2.80;;;1.30;;
43124;SDS011;49182;50.788;7.318;2022-07-15T12:53:26;5.28;;;1.67;;
43124;SDS011;49182;50.788;7.318;2022-07-15T12:55:56;5.25;;;2.00;;
43124;SDS011;49182;50.788;7.318;2022-07-15T12:58:25;3.88;;;1.60;;
43124;SDS011;49182;50.788;7.318;2022-07-15T13:00:53;4.32;;;1.50;;
43124;SDS011;49182;50.788;7.318;2022-07-15T13:03:34;5.85;;;1.52;;
43124;SDS011;49182;50.788;7.318;2022-07-15T13:06:02;4.38;;;1.40;;
43124;SDS011;49182;50.788;7.318;2022-07-15T13:08:30;3.65;;;1.33;;
43124;SDS011;49182;50.788;7.318;2022-07-15T13:10:59;8.20;;;2.50;;
43124;SDS011;49182;50.788;7.318;2022-07-15T13:13:28;3.80;;;1.60;;
43124;SDS011;49182;50.788;7.318;2022-07-15T13:15:55;2.55;;;1.33;;
43124;SDS011;49182;50.788;7.318;2022-07-15T13:18:22;3.15;;;1.38;;
43124;SDS011;49182;50.788;7.318;2022-07-15T13:20:49;4.50;;;1.50;;
43124;SDS011;49182;50.788;7.318;2022-07-15T13:23:17;5.72;;;1.80;;
43124;SDS011;49182;50.788;7.318;2022-07-15T13:25:44;4.07;;;1.52;;
43124;SDS011;49182;50.788;7.318;2022-07-15T13:28:10;4.57;;;1.73;;
43124;SDS011;49182;50.788;7.318;2022-07-15T13:30:37;5.25;;;1.40;;
43124;SDS011;49182;50.788;7.318;2022-07-15T13:33:05;7.55;;;1.83;;
43124;SDS011;49182;50.788;7.318;2022-07-15T13:35:32;3.08;;;1.23;;
43124;SDS011;49182;50.788;7.318;2022-07-15T13:37:59;5.88;;;1.30;;
43124;SDS011;49182;50.788;7.318;2022-07-15T13:40:27;4.20;;;1.30;;
43124;SDS011;49182;50.788;7.318;2022-07-15T13:42:53;3.90;;;1.40;;
43124;SDS011;49182;50.788;7.318;2022-07-15T13:45:20;3.13;;;1.25;;
43124;SDS011;49182;50.788;7.318;2022-07-15T13:47:46;2.58;;;1.20;;
43124;SDS011;49182;50.788;7.318;2022-07-15T13:50:13;3.80;;;1.52;;
43124;SDS011;49182;50.788;7.318;2022-07-15T13:52:40;4.70;;;1.63;;
43124;SDS011;49182;50.788;7.318;2022-07-15T13:55:08;4.32;;;1.48;;
43124;SDS011;49182;50.788;7.318;2022-07-15T13:57:36;2.30;;;1.30;;
43124;SDS011;49182;50.788;7.318;2022-07-15T14:00:04;5.05;;;1.60;;
43124;SDS011;49182;50.788;7.318;2022-07-15T14:02:32;3.22;;;1.70;;
43124;SDS011;49182;50.788;7.318;2022-07-15T14:04:59;5.68;;;1.50;;
43124;SDS011;49182;50.788;7.318;2022-07-15T14:07:25;3.72;;;1.25;;
43124;SDS011;49182;50.788;7.318;2022-07-15T14:09:52;2.53;;;1.00;;
43124;SDS011;49182;50.788;7.318;2022-07-15T14:12:19;3.47;;;1.38;;
43124;SDS011;49182;50.788;7.318;2022-07-15T14:14:47;3.92;;;1.30;;
43124;SDS011;49182;50.788;7.318;2022-07-15T14:17:14;2.67;;;1.10;;
43124;SDS011;49182;50.788;7.318;2022-07-15T14:19:41;3.58;;;1.20;;
43124;SDS011;49182;50.788;7.318;2022-07-15T14:22:07;3.28;;;1.33;;
43124;SDS011;49182;50.788;7.318;2022-07-15T14:24:34;4.13;;;0.95;;
43124;SDS011;49182;50.788;7.318;2022-07-15T14:27:01;5.78;;;1.50;;
43124;SDS011;49182;50.788;7.318;2022-07-15T14:29:32;3.72;;;0.98;;
43124;SDS011;49182;50.788;7.318;2022-07-15T14:32:00;4.57;;;0.90;;
43124;SDS011;49182;50.788;7.318;2022-07-15T14:34:27;6.35;;;1.35;;
43124;SDS011;49182;50.788;7.318;2022-07-15T14:36:54;2.75;;;0.90;;
43124;SDS011;49182;50.788;7.318;2022-07-15T14:39:40;3.35;;;1.00;;
43124;SDS011;49182;50.788;7.318;2022-07-15T14:42:07;5.25;;;1.20;;
43124;SDS011;49182;50.788;7.318;2022-07-15T14:44:34;7.18;;;1.25;;
43124;SDS011;49182;50.788;7.318;2022-07-15T14:47:02;3.53;;;1.00;;
43124;SDS011;49182;50.788;7.318;2022-07-15T14:49:29;4.00;;;1.10;;
43124;SDS011;49182;50.788;7.318;2022-07-15T14:51:56;2.70;;;0.75;;
43124;SDS011;49182;50.788;7.318;2022-07-15T14:54:22;3.20;;;0.82;;
43124;SDS011;49182;50.788;7.318;2022-07-15T14:56:49;2.80;;;0.90;;
43124;SDS011;49182;50.788;7.318;2022-07-15T14:59:16;4.03;;;0.90;;
43124;SDS011;49182;50.788;7.318;2022-07-15T15:01:42;3.67;;;0.80;;
43124;SDS011;49182;50.788;7.318;2022-07-15T15:04:10;2.15;;;0.70;;
43124;SDS011;49182;50.788;7.318;2022-07-15T15:06:37;2.83;;;0.70;;
43124;SDS011;49182;50.788;7.318;2022-07-15T15:09:04;3.22;;;0.80;;
43124;SDS011;49182;50.788;7.318;2022-07-15T15:11:30;2.08;;;0.77;;